DNEN METAR and TAF | Updated Today

DNEN METAR

Akanu Ibiam International Airport

Observation time: 86 min. ago

DNEN 061800Z 23011KT 7000 -TSRA BKN010 24/22 Q1012 TEMPO 5000 -TSRA

Need help? Read our tutorial on how to read METARs or read the parsed version below.

Akanu Ibiam International Airport (DNEN) METAR

  • Weather conditions on Thu, 06 Oct 2022 18:00:00 +0000 (86 min. ago):
  • Present conditions: Light thunderstorms rain
  • Clouds: Broken sky at 305 meters
  • Visibility: 7000 meters
  • Wind: 230 degrees at 11 knots
  • Temperature: 24 celsius
  • Dew point: 22 celsius
  • Pressure: 1012 millibars
  • Remarks: None


Useful to know...

DNEN TAF

Akanu Ibiam International Airport

TAF not found.

Airports near DNEN

No airports found within 100nm radius.